sensor_id;sensor_type;location;lat;lon;timestamp;pressure;altitude;pressure_sealevel;temperature;humidity
70916;BME280;58557;50.982;-3.222;2023-02-12T00:02:10;103028.99;;;13.10;42.08
70916;BME280;58557;50.982;-3.222;2023-02-12T00:04:35;103024.53;;;12.85;41.63
70916;BME280;58557;50.982;-3.222;2023-02-12T00:07:01;103022.52;;;12.74;42.10
70916;BME280;58557;50.982;-3.222;2023-02-12T00:09:26;103022.91;;;12.54;42.34
70916;BME280;58557;50.982;-3.222;2023-02-12T00:11:52;103023.66;;;12.49;42.31
70916;BME280;58557;50.982;-3.222;2023-02-12T00:14:17;103021.86;;;12.69;41.64
70916;BME280;58557;50.982;-3.222;2023-02-12T00:16:42;103019.94;;;13.09;41.37
70916;BME280;58557;50.982;-3.222;2023-02-12T00:19:08;103016.25;;;12.79;41.23
70916;BME280;58557;50.982;-3.222;2023-02-12T00:21:32;103021.68;;;12.69;41.54
70916;BME280;58557;50.982;-3.222;2023-02-12T00:23:58;103014.33;;;12.57;42.74
70916;BME280;58557;50.982;-3.222;2023-02-12T00:26:24;103020.39;;;11.97;43.94
70916;BME280;58557;50.982;-3.222;2023-02-12T00:28:49;103019.72;;;12.15;43.96
70916;BME280;58557;50.982;-3.222;2023-02-12T00:31:16;103010.56;;;11.11;44.44
70916;BME280;58557;50.982;-3.222;2023-02-12T00:33:40;103005.84;;;10.26;46.21
70916;BME280;58557;50.982;-3.222;2023-02-12T00:36:06;103007.35;;;9.25;49.53
70916;BME280;58557;50.982;-3.222;2023-02-12T00:38:30;103009.40;;;11.03;46.46
70916;BME280;58557;50.982;-3.222;2023-02-12T00:40:56;103004.49;;;10.26;46.51
70916;BME280;58557;50.982;-3.222;2023-02-12T00:43:21;103006.57;;;9.91;48.40
70916;BME280;58557;50.982;-3.222;2023-02-12T00:45:47;103001.68;;;10.87;46.47
70916;BME280;58557;50.982;-3.222;2023-02-12T00:48:12;102996.78;;;10.47;45.17
70916;BME280;58557;50.982;-3.222;2023-02-12T00:50:37;103003.22;;;10.61;47.47
70916;BME280;58557;50.982;-3.222;2023-02-12T00:53:03;103002.83;;;10.56;47.77
70916;BME280;58557;50.982;-3.222;2023-02-12T00:55:28;103001.21;;;11.81;44.03
70916;BME280;58557;50.982;-3.222;2023-02-12T00:57:53;102994.67;;;11.42;43.11
70916;BME280;58557;50.982;-3.222;2023-02-12T01:02:44;102999.68;;;10.27;44.61
70916;BME280;58557;50.982;-3.222;2023-02-12T01:05:10;102997.44;;;11.35;44.49
70916;BME280;58557;50.982;-3.222;2023-02-12T01:07:35;102995.30;;;10.10;44.88
70916;BME280;58557;50.982;-3.222;2023-02-12T01:10:01;102993.36;;;10.18;44.82
70916;BME280;58557;50.982;-3.222;2023-02-12T01:12:26;102992.42;;;11.42;43.38
70916;BME280;58557;50.982;-3.222;2023-02-12T01:14:52;102991.08;;;11.00;43.87
70916;BME280;58557;50.982;-3.222;2023-02-12T01:17:17;102991.85;;;10.55;44.24
70916;BME280;58557;50.982;-3.222;2023-02-12T01:19:43;102996.86;;;10.69;44.72
70916;BME280;58557;50.982;-3.222;2023-02-12T01:22:08;102992.03;;;10.68;43.88
70916;BME280;58557;50.982;-3.222;2023-02-12T01:24:33;102986.61;;;10.53;43.68
70916;BME280;58557;50.982;-3.222;2023-02-12T01:26:59;102990.33;;;10.38;43.58
70916;BME280;58557;50.982;-3.222;2023-02-12T01:29:25;102987.65;;;10.54;44.08
70916;BME280;58557;50.982;-3.222;2023-02-12T01:31:49;102982.78;;;10.57;43.54
70916;BME280;58557;50.982;-3.222;2023-02-12T01:34:15;102990.50;;;10.37;44.20
70916;BME280;58557;50.982;-3.222;2023-02-12T01:36:40;102986.89;;;10.34;43.84
70916;BME280;58557;50.982;-3.222;2023-02-12T01:39:06;102973.05;;;11.29;43.58
70916;BME280;58557;50.982;-3.222;2023-02-12T01:41:33;102981.03;;;10.47;44.39
70916;BME280;58557;50.982;-3.222;2023-02-12T01:44:09;102989.32;;;9.79;45.92
70916;BME280;58557;50.982;-3.222;2023-02-12T01:46:22;102979.00;;;9.45;47.12
70916;BME280;58557;50.982;-3.222;2023-02-12T01:48:47;102976.57;;;9.32;45.59
70916;BME280;58557;50.982;-3.222;2023-02-12T01:51:17;102983.39;;;7.51;49.33
70916;BME280;58557;50.982;-3.222;2023-02-12T01:53:44;102977.75;;;9.11;47.09
70916;BME280;58557;50.982;-3.222;2023-02-12T01:56:06;102984.37;;;8.93;47.30
70916;BME280;58557;50.982;-3.222;2023-02-12T01:58:34;102982.99;;;9.22;45.86
70916;BME280;58557;50.982;-3.222;2023-02-12T02:00:55;102985.36;;;8.01;48.00
70916;BME280;58557;50.982;-3.222;2023-02-12T02:03:21;102982.05;;;7.48;48.83
70916;BME280;58557;50.982;-3.222;2023-02-12T02:05:51;102987.72;;;8.23;48.47
70916;BME280;58557;50.982;-3.222;2023-02-12T02:08:12;102980.88;;;8.95;46.94
70916;BME280;58557;50.982;-3.222;2023-02-12T02:10:37;102971.82;;;9.06;47.39
70916;BME280;58557;50.982;-3.222;2023-02-12T02:13:02;102980.55;;;8.82;46.41
70916;BME280;58557;50.982;-3.222;2023-02-12T02:15:29;102986.88;;;8.54;46.75
70916;BME280;58557;50.982;-3.222;2023-02-12T02:17:58;102983.83;;;8.56;47.35
70916;BME280;58557;50.982;-3.222;2023-02-12T02:20:32;102982.43;;;8.12;47.86
70916;BME280;58557;50.982;-3.222;2023-02-12T02:22:49;102983.69;;;8.41;47.60
70916;BME280;58557;50.982;-3.222;2023-02-12T02:27:40;102983.21;;;6.92;49.28
70916;BME280;58557;50.982;-3.222;2023-02-12T02:32:29;102990.09;;;6.92;50.02
70916;BME280;58557;50.982;-3.222;2023-02-12T02:34:56;102992.66;;;7.95;49.59
70916;BME280;58557;50.982;-3.222;2023-02-12T02:37:18;102996.75;;;8.34;47.37
70916;BME280;58557;50.982;-3.222;2023-02-12T02:39:45;102993.42;;;7.28;48.92
70916;BME280;58557;50.982;-3.222;2023-02-12T02:42:13;102990.39;;;7.18;50.53
70916;BME280;58557;50.982;-3.222;2023-02-12T02:44:35;102989.19;;;6.74;53.85
70916;BME280;58557;50.982;-3.222;2023-02-12T02:46:57;102993.73;;;6.41;53.18
70916;BME280;58557;50.982;-3.222;2023-02-12T02:49:24;102989.95;;;6.01;53.35
70916;BME280;58557;50.982;-3.222;2023-02-12T02:51:51;102984.08;;;6.71;53.07
70916;BME280;58557;50.982;-3.222;2023-02-12T02:54:16;102987.55;;;7.04;52.29
70916;BME280;58557;50.982;-3.222;2023-02-12T02:56:41;102993.90;;;8.91;49.89
70916;BME280;58557;50.982;-3.222;2023-02-12T02:59:07;102985.13;;;8.54;49.17
70916;BME280;58557;50.982;-3.222;2023-02-12T03:01:32;102983.13;;;9.07;49.30
70916;BME280;58557;50.982;-3.222;2023-02-12T03:03:58;102993.59;;;8.39;49.91
70916;BME280;58557;50.982;-3.222;2023-02-12T03:06:25;102993.42;;;9.06;48.83
70916;BME280;58557;50.982;-3.222;2023-02-12T03:08:48;102980.51;;;10.24;45.70
70916;BME280;58557;50.982;-3.222;2023-02-12T03:11:14;102978.14;;;9.17;45.35
70916;BME280;58557;50.982;-3.222;2023-02-12T03:13:40;102981.62;;;10.18;45.58
70916;BME280;58557;50.982;-3.222;2023-02-12T03:16:04;102966.71;;;10.28;44.41
70916;BME280;58557;50.982;-3.222;2023-02-12T03:18:30;102963.92;;;10.30;45.45
70916;BME280;58557;50.982;-3.222;2023-02-12T03:20:59;102964.77;;;9.52;48.18
70916;BME280;58557;50.982;-3.222;2023-02-12T03:23:23;102962.73;;;10.02;46.66
70916;BME280;58557;50.982;-3.222;2023-02-12T03:25:49;102961.15;;;10.21;44.28
70916;BME280;58557;50.982;-3.222;2023-02-12T03:28:15;102960.16;;;10.48;45.26
70916;BME280;58557;50.982;-3.222;2023-02-12T03:30:41;102959.80;;;10.46;45.40
70916;BME280;58557;50.982;-3.222;2023-02-12T03:33:09;102958.53;;;9.98;45.41
70916;BME280;58557;50.982;-3.222;2023-02-12T03:35:31;102954.37;;;10.93;44.05
70916;BME280;58557;50.982;-3.222;2023-02-12T03:37:56;102943.78;;;10.88;43.29
70916;BME280;58557;50.982;-3.222;2023-02-12T03:40:19;102945.47;;;10.43;43.95
70916;BME280;58557;50.982;-3.222;2023-02-12T03:42:46;102944.38;;;10.63;43.42
70916;BME280;58557;50.982;-3.222;2023-02-12T03:45:09;102944.79;;;10.88;42.94
70916;BME280;58557;50.982;-3.222;2023-02-12T03:47:39;102952.15;;;8.28;48.36
70916;BME280;58557;50.982;-3.222;2023-02-12T03:50:02;102950.03;;;10.10;46.02
70916;BME280;58557;50.982;-3.222;2023-02-12T03:52:23;102947.87;;;10.38;44.87
70916;BME280;58557;50.982;-3.222;2023-02-12T03:54:48;102947.57;;;10.70;44.14
70916;BME280;58557;50.982;-3.222;2023-02-12T03:57:18;102947.76;;;9.52;45.78
70916;BME280;58557;50.982;-3.222;2023-02-12T03:59:40;102944.43;;;11.19;42.78
70916;BME280;58557;50.982;-3.222;2023-02-12T04:02:06;102940.26;;;10.70;42.86
70916;BME280;58557;50.982;-3.222;2023-02-12T04:04:31;102939.95;;;11.74;42.19
70916;BME280;58557;50.982;-3.222;2023-02-12T04:06:57;102935.75;;;10.50;43.21
70916;BME280;58557;50.982;-3.222;2023-02-12T04:09:24;102943.34;;;11.23;43.03
70916;BME280;58557;50.982;-3.222;2023-02-12T04:11:59;102945.14;;;11.06;42.71
70916;BME280;58557;50.982;-3.222;2023-02-12T04:14:20;102948.50;;;10.84;43.56
70916;BME280;58557;50.982;-3.222;2023-02-12T04:16:44;102948.21;;;10.09;44.05
70916;BME280;58557;50.982;-3.222;2023-02-12T04:19:04;102950.40;;;11.34;42.19
70916;BME280;58557;50.982;-3.222;2023-02-12T04:21:41;102949.99;;;9.50;44.91
70916;BME280;58557;50.982;-3.222;2023-02-12T04:24:02;102945.11;;;10.58;44.45
70916;BME280;58557;50.982;-3.222;2023-02-12T04:26:23;102955.97;;;7.59;50.32
70916;BME280;58557;50.982;-3.222;2023-02-12T04:28:54;102951.39;;;10.02;47.54
70916;BME280;58557;50.982;-3.222;2023-02-12T04:31:15;102944.74;;;10.74;44.08
70916;BME280;58557;50.982;-3.222;2023-02-12T04:33:43;102949.53;;;8.24;49.32
70916;BME280;58557;50.982;-3.222;2023-02-12T04:36:05;102945.89;;;10.08;46.22
70916;BME280;58557;50.982;-3.222;2023-02-12T04:38:31;102937.10;;;11.17;44.04
70916;BME280;58557;50.982;-3.222;2023-02-12T04:40:52;102942.74;;;10.05;46.51
70916;BME280;58557;50.982;-3.222;2023-02-12T04:43:26;102944.83;;;10.95;43.39
70916;BME280;58557;50.982;-3.222;2023-02-12T04:45:43;102937.24;;;8.40;47.61
70916;BME280;58557;50.982;-3.222;2023-02-12T04:48:09;102934.36;;;10.89;44.82
70916;BME280;58557;50.982;-3.222;2023-02-12T04:50:38;102934.19;;;11.41;43.08
70916;BME280;58557;50.982;-3.222;2023-02-12T04:53:00;102937.52;;;10.89;43.32
70916;BME280;58557;50.982;-3.222;2023-02-12T04:55:25;102941.81;;;10.57;43.97
70916;BME280;58557;50.982;-3.222;2023-02-12T04:57:50;102943.35;;;10.83;44.44
70916;BME280;58557;50.982;-3.222;2023-02-12T05:00:17;102937.78;;;12.04;41.03
70916;BME280;58557;50.982;-3.222;2023-02-12T05:02:42;102939.14;;;10.28;45.60
70916;BME280;58557;50.982;-3.222;2023-02-12T05:05:07;102934.15;;;11.19;43.14
70916;BME280;58557;50.982;-3.222;2023-02-12T05:07:32;102941.92;;;11.91;41.35
70916;BME280;58557;50.982;-3.222;2023-02-12T05:09:58;102943.26;;;10.17;44.05
70916;BME280;58557;50.982;-3.222;2023-02-12T05:12:24;102940.76;;;11.41;41.65
70916;BME280;58557;50.982;-3.222;2023-02-12T05:14:49;102947.78;;;11.29;43.24
70916;BME280;58557;50.982;-3.222;2023-02-12T05:17:14;102947.62;;;11.32;42.88
70916;BME280;58557;50.982;-3.222;2023-02-12T05:19:40;102942.71;;;12.23;41.75
70916;BME280;58557;50.982;-3.222;2023-02-12T05:22:05;102937.17;;;11.25;42.23
70916;BME280;58557;50.982;-3.222;2023-02-12T05:24:31;102939.24;;;11.67;42.53
70916;BME280;58557;50.982;-3.222;2023-02-12T05:26:56;102942.13;;;10.79;43.29
70916;BME280;58557;50.982;-3.222;2023-02-12T05:29:22;102944.30;;;11.05;43.44
70916;BME280;58557;50.982;-3.222;2023-02-12T05:31:48;102938.44;;;11.38;42.91
70916;BME280;58557;50.982;-3.222;2023-02-12T05:34:13;102937.99;;;12.37;41.32
70916;BME280;58557;50.982;-3.222;2023-02-12T05:36:38;102930.00;;;11.44;42.53
70916;BME280;58557;50.982;-3.222;2023-02-12T05:39:05;102935.19;;;11.34;42.34
70916;BME280;58557;50.982;-3.222;2023-02-12T05:41:29;102933.44;;;11.74;42.68
70916;BME280;58557;50.982;-3.222;2023-02-12T05:43:55;102935.11;;;10.77;43.64
70916;BME280;58557;50.982;-3.222;2023-02-12T05:46:21;102933.05;;;11.09;43.43
70916;BME280;58557;50.982;-3.222;2023-02-12T05:48:47;102931.51;;;10.75;44.40
70916;BME280;58557;50.982;-3.222;2023-02-12T05:51:13;102925.63;;;11.47;43.07
70916;BME280;58557;50.982;-3.222;2023-02-12T05:53:39;102926.84;;;11.88;41.27
70916;BME280;58557;50.982;-3.222;2023-02-12T05:56:09;102922.85;;;11.99;41.73
70916;BME280;58557;50.982;-3.222;2023-02-12T05:58:28;102925.86;;;11.97;41.90
70916;BME280;58557;50.982;-3.222;2023-02-12T06:00:53;102924.28;;;11.42;42.32
70916;BME280;58557;50.982;-3.222;2023-02-12T06:03:18;102921.44;;;11.15;43.10
70916;BME280;58557;50.982;-3.222;2023-02-12T06:05:49;102921.66;;;11.96;41.92
70916;BME280;58557;50.982;-3.222;2023-02-12T06:08:09;102920.29;;;12.21;41.16
70916;BME280;58557;50.982;-3.222;2023-02-12T06:10:36;102918.85;;;11.42;40.79
70916;BME280;58557;50.982;-3.222;2023-02-12T06:13:01;102915.96;;;12.00;41.25
70916;BME280;58557;50.982;-3.222;2023-02-12T06:15:26;102917.08;;;10.73;42.29
70916;BME280;58557;50.982;-3.222;2023-02-12T06:17:51;102911.55;;;11.55;42.42
70916;BME280;58557;50.982;-3.222;2023-02-12T06:20:17;102913.80;;;11.74;41.59
70916;BME280;58557;50.982;-3.222;2023-02-12T06:22:42;102912.16;;;12.03;41.12
70916;BME280;58557;50.982;-3.222;2023-02-12T06:25:08;102913.34;;;11.46;41.27
70916;BME280;58557;50.982;-3.222;2023-02-12T06:27:39;102912.17;;;12.33;40.42
70916;BME280;58557;50.982;-3.222;2023-02-12T06:29:59;102915.74;;;11.55;42.17
70916;BME280;58557;50.982;-3.222;2023-02-12T06:32:25;102915.34;;;11.04;42.22
70916;BME280;58557;50.982;-3.222;2023-02-12T06:34:50;102911.82;;;12.07;40.94
70916;BME280;58557;50.982;-3.222;2023-02-12T06:37:16;102912.84;;;12.06;41.77
70916;BME280;58557;50.982;-3.222;2023-02-12T06:39:41;102915.00;;;11.37;41.75
70916;BME280;58557;50.982;-3.222;2023-02-12T06:42:07;102912.81;;;11.25;42.42
70916;BME280;58557;50.982;-3.222;2023-02-12T06:44:31;102914.54;;;11.80;41.81
70916;BME280;58557;50.982;-3.222;2023-02-12T06:46:56;102911.33;;;11.21;41.75
70916;BME280;58557;50.982;-3.222;2023-02-12T06:49:21;102915.44;;;12.06;41.57
70916;BME280;58557;50.982;-3.222;2023-02-12T06:51:47;102913.82;;;11.29;41.89
70916;BME280;58557;50.982;-3.222;2023-02-12T06:54:17;102916.95;;;11.87;42.06
70916;BME280;58557;50.982;-3.222;2023-02-12T06:56:38;102919.79;;;12.33;41.48
70916;BME280;58557;50.982;-3.222;2023-02-12T06:59:04;102916.54;;;12.51;40.97
70916;BME280;58557;50.982;-3.222;2023-02-12T07:01:30;102921.78;;;10.82;44.44
70916;BME280;58557;50.982;-3.222;2023-02-12T07:03:56;102919.12;;;11.97;41.76
70916;BME280;58557;50.982;-3.222;2023-02-12T07:06:21;102918.23;;;11.09;42.48
70916;BME280;58557;50.982;-3.222;2023-02-12T07:08:47;102921.57;;;12.14;40.99
70916;BME280;58557;50.982;-3.222;2023-02-12T07:11:12;102925.89;;;12.21;41.63
70916;BME280;58557;50.982;-3.222;2023-02-12T07:13:38;102922.44;;;12.22;40.12
70916;BME280;58557;50.982;-3.222;2023-02-12T07:16:04;102924.77;;;12.93;40.36
70916;BME280;58557;50.982;-3.222;2023-02-12T07:18:29;102921.06;;;12.20;40.12
70916;BME280;58557;50.982;-3.222;2023-02-12T07:20:55;102922.21;;;11.53;41.31
70916;BME280;58557;50.982;-3.222;2023-02-12T07:23:20;102922.75;;;12.17;40.38
70916;BME280;58557;50.982;-3.222;2023-02-12T07:25:54;102924.60;;;12.19;40.49
70916;BME280;58557;50.982;-3.222;2023-02-12T07:28:11;102928.45;;;12.69;40.49
70916;BME280;58557;50.982;-3.222;2023-02-12T07:30:37;102928.30;;;12.51;41.03
70916;BME280;58557;50.982;-3.222;2023-02-12T07:33:02;102926.47;;;11.86;41.49
70916;BME280;58557;50.982;-3.222;2023-02-12T07:35:27;102926.76;;;12.28;41.04
70916;BME280;58557;50.982;-3.222;2023-02-12T07:37:53;102924.66;;;12.09;41.81
70916;BME280;58557;50.982;-3.222;2023-02-12T07:40:18;102926.83;;;10.68;43.27
70916;BME280;58557;50.982;-3.222;2023-02-12T07:42:44;102925.02;;;11.44;43.04
70916;BME280;58557;50.982;-3.222;2023-02-12T07:45:09;102930.10;;;10.93;43.65
70916;BME280;58557;50.982;-3.222;2023-02-12T07:47:34;102931.83;;;11.40;43.35
70916;BME280;58557;50.982;-3.222;2023-02-12T07:50:00;102933.38;;;11.56;43.02
70916;BME280;58557;50.982;-3.222;2023-02-12T07:52:25;102934.49;;;12.12;42.11
70916;BME280;58557;50.982;-3.222;2023-02-12T07:54:51;102931.27;;;11.40;42.98
70916;BME280;58557;50.982;-3.222;2023-02-12T07:57:16;102929.25;;;11.12;44.33
70916;BME280;58557;50.982;-3.222;2023-02-12T07:59:42;102933.27;;;11.52;42.13
70916;BME280;58557;50.982;-3.222;2023-02-12T08:02:08;102934.69;;;11.05;43.67
70916;BME280;58557;50.982;-3.222;2023-02-12T08:04:33;102936.83;;;11.72;41.63
70916;BME280;58557;50.982;-3.222;2023-02-12T08:06:59;102935.43;;;11.94;41.38
70916;BME280;58557;50.982;-3.222;2023-02-12T08:09:26;102936.99;;;12.30;41.01
70916;BME280;58557;50.982;-3.222;2023-02-12T08:11:50;102935.70;;;12.04;40.96
70916;BME280;58557;50.982;-3.222;2023-02-12T08:14:16;102940.90;;;11.88;41.33
70916;BME280;58557;50.982;-3.222;2023-02-12T08:16:41;102940.52;;;12.65;40.16
70916;BME280;58557;50.982;-3.222;2023-02-12T08:19:06;102936.54;;;11.62;42.52
70916;BME280;58557;50.982;-3.222;2023-02-12T08:21:31;102939.12;;;12.14;41.94
70916;BME280;58557;50.982;-3.222;2023-02-12T08:23:58;102941.00;;;11.98;41.85
70916;BME280;58557;50.982;-3.222;2023-02-12T08:26:24;102943.84;;;12.42;40.92
70916;BME280;58557;50.982;-3.222;2023-02-12T08:28:49;102941.50;;;12.33;41.11
70916;BME280;58557;50.982;-3.222;2023-02-12T08:31:16;102942.54;;;11.62;42.33
70916;BME280;58557;50.982;-3.222;2023-02-12T08:33:40;102945.30;;;11.57;41.88
70916;BME280;58557;50.982;-3.222;2023-02-12T08:36:07;102941.72;;;12.20;41.87
70916;BME280;58557;50.982;-3.222;2023-02-12T08:38:32;102939.54;;;11.54;43.37
70916;BME280;58557;50.982;-3.222;2023-02-12T08:41:00;102947.36;;;11.23;44.18
70916;BME280;58557;50.982;-3.222;2023-02-12T08:43:22;102948.13;;;11.29;42.83
70916;BME280;58557;50.982;-3.222;2023-02-12T08:45:47;102953.05;;;12.16;43.25
70916;BME280;58557;50.982;-3.222;2023-02-12T08:48:13;102952.21;;;12.39;41.76
70916;BME280;58557;50.982;-3.222;2023-02-12T08:50:38;102955.08;;;11.46;43.31
70916;BME280;58557;50.982;-3.222;2023-02-12T08:53:04;102953.18;;;11.06;44.15
70916;BME280;58557;50.982;-3.222;2023-02-12T08:55:29;102951.00;;;11.07;44.87
70916;BME280;58557;50.982;-3.222;2023-02-12T08:57:55;102955.84;;;10.47;46.36
70916;BME280;58557;50.982;-3.222;2023-02-12T09:00:20;102956.94;;;11.19;45.25
70916;BME280;58557;50.982;-3.222;2023-02-12T09:02:47;102954.76;;;10.71;45.40
70916;BME280;58557;50.982;-3.222;2023-02-12T09:05:10;102953.42;;;11.81;44.71
70916;BME280;58557;50.982;-3.222;2023-02-12T09:07:36;102955.82;;;11.23;43.78
70916;BME280;58557;50.982;-3.222;2023-02-12T09:10:01;102955.42;;;12.03;43.99
70916;BME280;58557;50.982;-3.222;2023-02-12T09:12:27;102954.90;;;11.53;44.64
70916;BME280;58557;50.982;-3.222;2023-02-12T09:14:52;102953.17;;;11.79;44.57
70916;BME280;58557;50.982;-3.222;2023-02-12T09:17:18;102948.84;;;12.09;44.30
70916;BME280;58557;50.982;-3.222;2023-02-12T09:19:43;102945.30;;;11.56;45.13
70916;BME280;58557;50.982;-3.222;2023-02-12T09:22:08;102943.39;;;12.03;45.50
70916;BME280;58557;50.982;-3.222;2023-02-12T09:24:35;102948.29;;;12.09;45.03
70916;BME280;58557;50.982;-3.222;2023-02-12T09:26:59;102946.19;;;11.05;45.03
70916;BME280;58557;50.982;-3.222;2023-02-12T09:29:24;102944.62;;;12.37;43.89
70916;BME280;58557;50.982;-3.222;2023-02-12T09:31:50;102945.12;;;12.39;44.01
70916;BME280;58557;50.982;-3.222;2023-02-12T09:34:15;102945.46;;;11.55;45.13
70916;BME280;58557;50.982;-3.222;2023-02-12T09:36:41;102945.55;;;12.02;45.46
70916;BME280;58557;50.982;-3.222;2023-02-12T09:39:06;102942.99;;;12.21;45.01
70916;BME280;58557;50.982;-3.222;2023-02-12T09:41:45;102947.56;;;13.11;43.46
70916;BME280;58557;50.982;-3.222;2023-02-12T09:44:01;102946.92;;;13.18;42.40
70916;BME280;58557;50.982;-3.222;2023-02-12T09:46:28;102945.72;;;13.38;42.22
70916;BME280;58557;50.982;-3.222;2023-02-12T09:48:55;102947.65;;;13.51;41.70
70916;BME280;58557;50.982;-3.222;2023-02-12T09:51:13;102947.83;;;13.39;42.03
70916;BME280;58557;50.982;-3.222;2023-02-12T09:53:42;102945.26;;;14.17;41.51
70916;BME280;58557;50.982;-3.222;2023-02-12T09:56:10;102947.97;;;14.12;40.38
70916;BME280;58557;50.982;-3.222;2023-02-12T09:58:33;102950.60;;;14.15;41.14
70916;BME280;58557;50.982;-3.222;2023-02-12T10:00:55;102952.14;;;14.30;40.76
70916;BME280;58557;50.982;-3.222;2023-02-12T10:03:21;102948.94;;;13.72;42.02
70916;BME280;58557;50.982;-3.222;2023-02-12T10:05:49;102948.47;;;14.56;41.01
70916;BME280;58557;50.982;-3.222;2023-02-12T10:08:28;102942.28;;;14.68;40.19
70916;BME280;58557;50.982;-3.222;2023-02-12T10:10:47;102941.25;;;14.19;40.40
70916;BME280;58557;50.982;-3.222;2023-02-12T10:13:04;102939.98;;;14.37;40.91
70916;BME280;58557;50.982;-3.222;2023-02-12T10:15:34;102939.80;;;14.12;41.06
70916;BME280;58557;50.982;-3.222;2023-02-12T10:17:58;102933.85;;;13.63;41.92
70916;BME280;58557;50.982;-3.222;2023-02-12T10:20:34;102941.93;;;12.95;43.65
70916;BME280;58557;50.982;-3.222;2023-02-12T10:22:53;102941.43;;;12.33;45.48
70916;BME280;58557;50.982;-3.222;2023-02-12T10:25:19;102941.87;;;11.79;46.82
70916;BME280;58557;50.982;-3.222;2023-02-12T10:27:38;102939.08;;;11.79;47.72
70916;BME280;58557;50.982;-3.222;2023-02-12T10:30:05;102944.69;;;12.24;46.53
70916;BME280;58557;50.982;-3.222;2023-02-12T10:32:29;102946.38;;;12.14;46.89
70916;BME280;58557;50.982;-3.222;2023-02-12T10:34:53;102949.96;;;12.64;46.09
70916;BME280;58557;50.982;-3.222;2023-02-12T10:37:25;102949.99;;;13.09;45.20
70916;BME280;58557;50.982;-3.222;2023-02-12T10:39:48;102952.44;;;12.08;46.08
70916;BME280;58557;50.982;-3.222;2023-02-12T10:42:11;102949.92;;;11.79;47.57
70916;BME280;58557;50.982;-3.222;2023-02-12T10:44:34;102947.94;;;12.25;47.43
70916;BME280;58557;50.982;-3.222;2023-02-12T10:47:00;102947.83;;;12.27;47.20
70916;BME280;58557;50.982;-3.222;2023-02-12T10:49:25;102948.27;;;12.03;47.35
70916;BME280;58557;50.982;-3.222;2023-02-12T10:52:01;102945.37;;;12.85;45.32
70916;BME280;58557;50.982;-3.222;2023-02-12T10:54:31;102947.63;;;12.23;46.43
70916;BME280;58557;50.982;-3.222;2023-02-12T10:56:41;102949.19;;;13.32;44.93
70916;BME280;58557;50.982;-3.222;2023-02-12T10:59:19;102943.88;;;13.25;45.06
70916;BME280;58557;50.982;-3.222;2023-02-12T11:01:35;102932.15;;;13.66;44.15
70916;BME280;58557;50.982;-3.222;2023-02-12T11:04:00;102934.38;;;12.90;44.83
70916;BME280;58557;50.982;-3.222;2023-02-12T11:06:25;102931.06;;;13.43;43.50
70916;BME280;58557;50.982;-3.222;2023-02-12T11:08:50;102932.25;;;13.81;43.37
70916;BME280;58557;50.982;-3.222;2023-02-12T11:11:18;102937.16;;;12.91;45.10
70916;BME280;58557;50.982;-3.222;2023-02-12T11:13:43;102934.92;;;12.60;47.07
70916;BME280;58557;50.982;-3.222;2023-02-12T11:16:06;102937.81;;;12.40;45.82
70916;BME280;58557;50.982;-3.222;2023-02-12T11:18:33;102932.97;;;10.84;46.29
70916;BME280;58557;50.982;-3.222;2023-02-12T11:21:00;102941.56;;;10.84;46.40
70916;BME280;58557;50.982;-3.222;2023-02-12T11:23:25;102938.83;;;9.60;49.73
70916;BME280;58557;50.982;-3.222;2023-02-12T11:25:55;102939.42;;;10.18;48.03
70916;BME280;58557;50.982;-3.222;2023-02-12T11:28:16;102943.59;;;9.12;51.04
70916;BME280;58557;50.982;-3.222;2023-02-12T11:30:50;102942.90;;;9.29;52.34
70916;BME280;58557;50.982;-3.222;2023-02-12T11:33:15;102939.63;;;9.96;50.12
70916;BME280;58557;50.982;-3.222;2023-02-12T11:35:31;102943.39;;;10.36;48.69
70916;BME280;58557;50.982;-3.222;2023-02-12T11:37:58;102941.46;;;11.18;47.33
70916;BME280;58557;50.982;-3.222;2023-02-12T11:40:24;102945.23;;;11.10;48.40
70916;BME280;58557;50.982;-3.222;2023-02-12T11:42:51;102941.98;;;10.41;47.97
70916;BME280;58557;50.982;-3.222;2023-02-12T11:45:16;102940.23;;;9.89;50.54
70916;BME280;58557;50.982;-3.222;2023-02-12T11:47:39;102940.58;;;10.24;49.80
70916;BME280;58557;50.982;-3.222;2023-02-12T11:50:14;102937.61;;;10.22;49.84
70916;BME280;58557;50.982;-3.222;2023-02-12T11:52:33;102933.32;;;10.61;48.20
70916;BME280;58557;50.982;-3.222;2023-02-12T11:54:59;102926.75;;;11.97;46.47
70916;BME280;58557;50.982;-3.222;2023-02-12T11:57:35;102929.62;;;11.67;45.86
70916;BME280;58557;50.982;-3.222;2023-02-12T11:59:47;102928.89;;;10.81;48.25
70916;BME280;58557;50.982;-3.222;2023-02-12T12:02:20;102922.92;;;9.84;50.74
70916;BME280;58557;50.982;-3.222;2023-02-12T12:04:39;102925.38;;;10.27;49.57
70916;BME280;58557;50.982;-3.222;2023-02-12T12:07:09;102917.69;;;10.95;48.16
70916;BME280;58557;50.982;-3.222;2023-02-12T12:09:34;102912.54;;;11.09;48.18
70916;BME280;58557;50.982;-3.222;2023-02-12T12:12:01;102911.59;;;10.71;49.01
70916;BME280;58557;50.982;-3.222;2023-02-12T12:14:24;102911.55;;;9.91;49.85
70916;BME280;58557;50.982;-3.222;2023-02-12T12:16:51;102905.43;;;10.86;48.26
70916;BME280;58557;50.982;-3.222;2023-02-12T12:19:17;102898.52;;;10.93;48.69
70916;BME280;58557;50.982;-3.222;2023-02-12T12:21:40;102898.49;;;9.54;50.51
70916;BME280;58557;50.982;-3.222;2023-02-12T12:24:08;102902.85;;;10.11;49.59
70916;BME280;58557;50.982;-3.222;2023-02-12T12:26:29;102897.18;;;10.47;48.75
70916;BME280;58557;50.982;-3.222;2023-02-12T12:28:58;102894.88;;;11.33;47.05
70916;BME280;58557;50.982;-3.222;2023-02-12T12:31:20;102893.27;;;11.47;46.63
70916;BME280;58557;50.982;-3.222;2023-02-12T12:33:46;102890.12;;;11.09;47.84
70916;BME280;58557;50.982;-3.222;2023-02-12T12:38:44;102878.48;;;10.65;49.07
70916;BME280;58557;50.982;-3.222;2023-02-12T12:41:05;102867.65;;;11.18;48.04